createdAt,value
2022-12-01T00:00:09.703Z,87.58
2022-12-01T00:02:11.208Z,87.87
2022-12-01T00:04:13.060Z,87.62
2022-12-01T00:06:14.963Z,88.08
2022-12-01T00:08:16.205Z,87.39
2022-12-01T00:10:17.713Z,87.72
2022-12-01T00:14:20.707Z,88.07
2022-12-01T00:16:22.692Z,88.95
2022-12-01T00:18:24.300Z,88.88
2022-12-01T00:20:25.768Z,89.25
2022-12-01T00:22:27.445Z,89.01
2022-12-01T00:24:29.304Z,88.78
2022-12-01T00:26:30.315Z,88.92
2022-12-01T00:28:31.713Z,89.28
2022-12-01T00:30:32.866Z,87.98
2022-12-01T00:32:34.198Z,87.7
2022-12-01T00:34:36.069Z,88.24
2022-12-01T00:36:37.271Z,89.1
2022-12-01T00:38:39.278Z,89.32
2022-12-01T00:40:41.031Z,88.28
2022-12-01T00:42:42.090Z,86.98
2022-12-01T00:44:43.497Z,87.7
2022-12-01T00:46:44.940Z,88.49
2022-12-01T00:48:46.569Z,88.62
2022-12-01T00:50:47.624Z,88.72
2022-12-01T00:52:48.660Z,88.04
2022-12-01T00:54:49.959Z,87.68
2022-12-01T00:56:51.949Z,87.37
2022-12-01T00:58:53.595Z,87.12
2022-12-01T01:00:55.615Z,87.53
2022-12-01T01:02:57.391Z,87.64
2022-12-01T01:04:58.674Z,87.45
2022-12-01T01:06:59.872Z,87.44
2022-12-01T01:09:00.919Z,87.57
2022-12-01T01:11:02.572Z,88.11
2022-12-01T01:13:03.877Z,88.46
2022-12-01T01:15:05.274Z,88.27
2022-12-01T01:17:07.264Z,88.1
2022-12-01T01:19:08.583Z,88.13
2022-12-01T01:21:10.200Z,88.48
2022-12-01T01:23:11.390Z,88.76
2022-12-01T01:25:12.843Z,88.64
2022-12-01T01:27:14.624Z,88.01
2022-12-01T01:29:15.717Z,87.58
2022-12-01T01:31:17.049Z,87.79
2022-12-01T01:33:18.107Z,87.23
2022-12-01T01:35:19.178Z,88.27
2022-12-01T01:37:20.461Z,87.79
2022-12-01T01:39:21.963Z,88.27
2022-12-01T01:41:23.960Z,89.55
2022-12-01T01:43:25.906Z,89.39
2022-12-01T01:45:27.884Z,89.03
2022-12-01T01:47:29.488Z,88.98
2022-12-01T01:49:30.704Z,88.65
2022-12-01T01:51:32.336Z,88.32
2022-12-01T01:55:35.444Z,87.42
2022-12-01T01:57:36.711Z,87.2
2022-12-01T01:59:37.737Z,87.43
2022-12-01T02:01:39.157Z,88.47
2022-12-01T02:03:40.796Z,88.05
2022-12-01T02:05:41.826Z,87.14
2022-12-01T02:06:25.738Z,87.06
2022-12-01T02:08:26.821Z,86.8
2022-12-01T02:10:27.902Z,86.46
2022-12-01T02:12:29.123Z,86.3
2022-12-01T02:14:30.629Z,87.11
2022-12-01T02:16:32.071Z,87.27
2022-12-01T02:18:33.938Z,86.42
2022-12-01T02:22:36.672Z,86.49
2022-12-01T02:24:37.886Z,86.78
2022-12-01T02:26:39.084Z,87.32
2022-12-01T02:28:40.482Z,86.97
2022-12-01T02:32:43.459Z,87.63
2022-12-01T02:34:45.023Z,87.56
2022-12-01T02:36:46.485Z,88.4
2022-12-01T02:38:47.527Z,89.17
2022-12-01T02:40:49.278Z,89.42
2022-12-01T02:42:50.588Z,89.26
2022-12-01T02:44:51.781Z,88.96
2022-12-01T02:46:53.304Z,89.69
2022-12-01T02:48:54.943Z,89.75
2022-12-01T02:50:56.655Z,89.67
2022-12-01T02:52:58.356Z,89.52
2022-12-01T02:54:59.540Z,88.98
2022-12-01T02:57:01.239Z,89.65
2022-12-01T02:59:03.227Z,89.48
2022-12-01T03:01:04.442Z,89.58
2022-12-01T03:03:06.398Z,89.46
2022-12-01T03:05:07.838Z,89.4
2022-12-01T03:07:09.602Z,89.41
2022-12-01T03:09:10.680Z,89.62
2022-12-01T03:11:12.651Z,89.55
2022-12-01T03:15:15.815Z,89.48
2022-12-01T03:17:17.105Z,89.45
2022-12-01T03:21:20.696Z,90.35
2022-12-01T03:23:22.348Z,90.02
2022-12-01T03:25:23.376Z,90.56
2022-12-01T03:27:24.870Z,89.81
2022-12-01T03:29:26.608Z,89.85
2022-12-01T03:31:28.453Z,89.43
2022-12-01T03:33:30.071Z,89.29
2022-12-01T03:35:31.642Z,89.5
2022-12-01T03:37:32.735Z,89.37
2022-12-01T03:39:33.984Z,89.12
2022-12-01T03:41:35.884Z,89.83
2022-12-01T03:43:37.061Z,90.14
2022-12-01T03:45:38.941Z,89.67
2022-12-01T03:47:40.315Z,89.92
2022-12-01T03:49:41.549Z,89.93
2022-12-01T03:51:43.433Z,90.35
2022-12-01T03:53:45.300Z,89.68
2022-12-01T03:55:46.307Z,89.65
2022-12-01T03:57:47.567Z,89.56
2022-12-01T03:59:48.955Z,89.71
2022-12-01T04:01:49.995Z,89.55
2022-12-01T04:03:51.314Z,90.04
2022-12-01T04:05:52.627Z,89.6
2022-12-01T04:07:53.746Z,89.82
2022-12-01T04:09:55.192Z,89.86
2022-12-01T04:13:58.263Z,89.56
2022-12-01T04:15:59.932Z,89.92
2022-12-01T04:18:01.564Z,89.17
2022-12-01T04:20:03.549Z,89.02
2022-12-01T04:22:04.691Z,88.59
2022-12-01T04:24:06.243Z,88.54
2022-12-01T04:26:11.229Z,88.52
2022-12-01T04:28:09.164Z,89.15
2022-12-01T04:30:10.387Z,89.08
2022-12-01T04:32:11.730Z,89.46
2022-12-01T04:34:13.064Z,89.02
2022-12-01T04:36:14.274Z,89.3
2022-12-01T04:38:15.386Z,89.11
2022-12-01T04:40:17.014Z,89.47
2022-12-01T04:42:18.608Z,90
2022-12-01T04:46:22.417Z,89.4
2022-12-01T04:48:23.718Z,89.45
2022-12-01T04:50:25.395Z,89.44
2022-12-01T04:52:30.718Z,89.55
2022-12-01T04:56:30.678Z,88.89
2022-12-01T04:58:32.140Z,88.78
2022-12-01T05:00:33.871Z,88.69
2022-12-01T05:02:35.360Z,89.02
2022-12-01T05:04:36.624Z,88.78
2022-12-01T05:06:37.864Z,89.04
2022-12-01T05:08:39.872Z,89.61
2022-12-01T05:10:41.516Z,89.67
2022-12-01T05:12:42.651Z,88.79
2022-12-01T05:14:44.535Z,88.96
2022-12-01T05:16:45.751Z,88.68
2022-12-01T05:18:47.577Z,89.66
2022-12-01T05:20:48.958Z,90.02
2022-12-01T05:23:04.165Z,89.91
2022-12-01T05:24:52.142Z,90.05
2022-12-01T05:28:54.986Z,90.28
2022-12-01T05:30:56.363Z,90.43
2022-12-01T05:32:57.799Z,90.56
2022-12-01T05:34:58.896Z,90.48
2022-12-01T05:39:02.422Z,90.5
2022-12-01T05:41:04.262Z,90.56
2022-12-01T05:43:05.562Z,90.39
2022-12-01T05:45:07.380Z,90.21
2022-12-01T05:47:08.726Z,90.6
2022-12-01T05:49:09.915Z,90.02
2022-12-01T05:51:11.782Z,90.06
2022-12-01T05:53:13.467Z,90.2
2022-12-01T05:55:15.457Z,89.76
2022-12-01T05:57:17.208Z,89.57
2022-12-01T05:59:19.189Z,89.93
2022-12-01T06:01:20.410Z,89.74
2022-12-01T06:03:22.382Z,89.95
2022-12-01T06:05:23.809Z,89.98
2022-12-01T06:07:25.764Z,90.02
2022-12-01T06:11:28.545Z,90.11
2022-12-01T06:13:30.272Z,90.13
2022-12-01T06:15:31.385Z,90.14
2022-12-01T06:17:35.734Z,90.43
2022-12-01T06:19:33.486Z,90.44
2022-12-01T06:21:35.241Z,90.48
2022-12-01T06:23:36.260Z,90.22
2022-12-01T06:25:37.942Z,90.92
2022-12-01T06:27:39.539Z,90.95
2022-12-01T06:29:42.170Z,91.28
2022-12-01T06:31:41.836Z,90.45
2022-12-01T06:33:43.008Z,90.78
2022-12-01T06:35:44.540Z,91.2
2022-12-01T06:37:46.326Z,90.73
2022-12-01T06:39:48.115Z,90.68
2022-12-01T06:41:49.784Z,90.75
2022-12-01T06:43:51.397Z,90.74
2022-12-01T06:45:57.900Z,90.79
2022-12-01T06:47:54.743Z,90.74
2022-12-01T06:49:56.507Z,90.93
2022-12-01T06:54:03.851Z,90.88
2022-12-01T06:56:00.739Z,90.99
2022-12-01T06:58:02.675Z,91.47
2022-12-01T07:00:03.631Z,91.53
2022-12-01T07:02:04.830Z,91.46
2022-12-01T07:04:06.528Z,91.52
2022-12-01T07:06:08.407Z,91.91
2022-12-01T07:08:09.467Z,92.03
2022-12-01T07:10:10.669Z,91.68
2022-12-01T07:12:12.243Z,91.84
2022-12-01T07:14:13.802Z,91.71
2022-12-01T07:16:15.191Z,91.92
2022-12-01T07:18:17.075Z,91.51
2022-12-01T07:20:19.040Z,91.37
2022-12-01T07:22:20.284Z,91.56
2022-12-01T07:26:23.172Z,91.14
2022-12-01T07:28:24.492Z,91.2
2022-12-01T07:30:28.357Z,91.19
2022-12-01T07:32:27.299Z,91.22
2022-12-01T07:36:30.642Z,91.48
2022-12-01T07:38:32.009Z,91.22
2022-12-01T07:40:33.231Z,91.22
2022-12-01T07:42:34.644Z,91.44
2022-12-01T07:44:36.129Z,91.43
2022-12-01T07:46:38.146Z,91.16
2022-12-01T07:48:39.637Z,91.18
2022-12-01T07:50:40.645Z,91.05
2022-12-01T07:52:42.639Z,91.05
2022-12-01T07:54:44.203Z,90.94
2022-12-01T07:56:46.235Z,91.02
2022-12-01T07:58:48.495Z,90.96
2022-12-01T08:00:50.114Z,90.86
2022-12-01T08:02:51.553Z,90.9
2022-12-01T08:04:52.778Z,91.15
2022-12-01T08:06:54.031Z,91
2022-12-01T08:08:55.312Z,90.64
2022-12-01T08:10:56.385Z,91.52
2022-12-01T08:12:58.392Z,91.61
2022-12-01T08:14:59.938Z,91.36
2022-12-01T08:17:01.298Z,91.09
2022-12-01T08:19:02.411Z,91.34
2022-12-01T08:21:03.971Z,90.7
2022-12-01T08:25:06.663Z,90.35
2022-12-01T08:27:08.084Z,90.22
2022-12-01T08:29:10.038Z,90.07
2022-12-01T08:31:11.707Z,89.8
2022-12-01T08:35:14.516Z,89.97
2022-12-01T08:37:15.956Z,89.85
2022-12-01T08:39:17.223Z,89.3
2022-12-01T08:41:18.518Z,88.9
2022-12-01T08:43:41.748Z,88.89
2022-12-01T08:45:20.970Z,88.78
2022-12-01T08:47:22.145Z,88.38
2022-12-01T08:49:23.753Z,88.43
2022-12-01T08:51:25.492Z,89.02
2022-12-01T08:52:09.356Z,89.13
2022-12-01T08:54:10.687Z,88.09
2022-12-01T08:56:12.535Z,87.67
2022-12-01T08:58:13.558Z,88.37
2022-12-01T09:00:14.996Z,88.01
2022-12-01T09:02:17.017Z,87.66
2022-12-01T09:04:18.504Z,88.11
2022-12-01T09:06:20.352Z,88.39
2022-12-01T09:08:21.478Z,87.58
2022-12-01T09:12:25.180Z,87.63
2022-12-01T09:14:26.270Z,87.72
2022-12-01T09:16:27.553Z,87.78
2022-12-01T09:18:29.328Z,87.81
2022-12-01T09:20:30.316Z,87.76
2022-12-01T09:22:32.078Z,87.28
2022-12-01T09:24:33.470Z,87.77
2022-12-01T09:26:35.261Z,88.3
2022-12-01T09:28:36.530Z,88.52
2022-12-01T09:30:38.402Z,88.1
2022-12-01T09:32:40.050Z,87.79
2022-12-01T09:34:41.931Z,87.59
2022-12-01T09:36:43.362Z,87.27
2022-12-01T09:38:45.260Z,87.31
2022-12-01T09:40:46.776Z,86.15
2022-12-01T09:42:48.544Z,87.04
2022-12-01T09:44:49.844Z,86.83
2022-12-01T09:46:51.400Z,86.14
2022-12-01T09:48:53.340Z,86.38
2022-12-01T09:50:54.495Z,86.45
2022-12-01T09:54:57.843Z,86.97
2022-12-01T09:56:59.033Z,88.54
2022-12-01T09:59:00.959Z,87.93
2022-12-01T10:01:02.275Z,86.96
2022-12-01T10:03:03.526Z,86.46
2022-12-01T10:05:04.816Z,86.91
2022-12-01T10:07:06.360Z,86.98
2022-12-01T10:09:08.163Z,86.61
2022-12-01T10:11:09.635Z,86.63
2022-12-01T10:13:11.491Z,86.03
2022-12-01T10:15:12.696Z,86.28
2022-12-01T10:17:14.529Z,85.6
2022-12-01T10:19:16.213Z,86.06
2022-12-01T10:21:18.122Z,86.67
2022-12-01T10:23:19.154Z,85.95
2022-12-01T10:27:22.537Z,85.58
2022-12-01T10:29:23.811Z,85.59
2022-12-01T10:31:24.902Z,85.68
2022-12-01T10:33:26.227Z,86.5
2022-12-01T10:37:28.791Z,86.38
2022-12-01T10:39:30.047Z,85.34
2022-12-01T10:41:31.835Z,85.86
2022-12-01T10:43:32.910Z,86.55
2022-12-01T10:45:34.089Z,85.15
2022-12-01T10:47:35.667Z,85.64
2022-12-01T10:49:37.553Z,86.6
2022-12-01T10:51:39.360Z,86.86
2022-12-01T10:53:40.721Z,86.83
2022-12-01T10:55:46.446Z,86.5
2022-12-01T10:57:43.196Z,86.72
2022-12-01T10:59:44.769Z,86.64
2022-12-01T11:01:46.578Z,86.14
2022-12-01T11:03:47.757Z,85.96
2022-12-01T11:05:48.679Z,86.22
2022-12-01T11:07:49.975Z,86.05
2022-12-01T11:09:51.809Z,86.18
2022-12-01T11:11:53.437Z,86.21
2022-12-01T11:13:54.906Z,85.99
2022-12-01T11:15:56.863Z,85.5
2022-12-01T11:17:57.795Z,85.5
2022-12-01T11:19:59.704Z,85.5
2022-12-01T11:22:01.253Z,85.58
2022-12-01T11:26:03.726Z,85.69
2022-12-01T11:28:04.705Z,84.51
2022-12-01T11:30:06.544Z,84.67
2022-12-01T11:32:08.419Z,86.55
2022-12-01T11:36:15.986Z,85.52
2022-12-01T11:38:30.032Z,84.43
2022-12-01T11:40:14.040Z,84.94
2022-12-01T11:42:15.309Z,85.08
2022-12-01T11:44:28.792Z,85.06
2022-12-01T11:46:18.603Z,84.69
2022-12-01T11:48:19.982Z,85.32
2022-12-01T11:50:20.939Z,85.05
2022-12-01T11:52:22.822Z,86.18
2022-12-01T11:54:23.727Z,85.48
2022-12-01T11:56:25.804Z,84.27
2022-12-01T11:58:26.901Z,85.58
2022-12-01T12:00:27.904Z,86.32
2022-12-01T12:02:29.761Z,83.97
2022-12-01T12:04:30.792Z,85.36
2022-12-01T12:06:39.759Z,83.62
2022-12-01T12:08:33.353Z,82.31
2022-12-01T12:10:35.166Z,84.91
2022-12-01T12:12:36.696Z,83.88
2022-12-01T12:14:37.772Z,83.92
2022-12-01T12:18:40.133Z,84.58
2022-12-01T12:20:41.294Z,82.98
2022-12-01T12:22:42.832Z,83.17
2022-12-01T12:24:44.508Z,84.07
2022-12-01T12:26:46.207Z,84.66
2022-12-01T12:28:47.757Z,83.37
2022-12-01T12:30:49.367Z,84.43
2022-12-01T12:32:50.553Z,83.77
2022-12-01T12:34:51.551Z,83.99
2022-12-01T12:36:53.218Z,84.7
2022-12-01T12:38:54.170Z,84.87
2022-12-01T12:40:55.454Z,84.02
2022-12-01T12:42:57.011Z,84.11
2022-12-01T12:44:58.122Z,84.44
2022-12-01T12:46:59.586Z,83.19
2022-12-01T12:51:01.693Z,82.84
2022-12-01T12:53:03.321Z,84.47
2022-12-01T12:55:05.065Z,83.59
2022-12-01T12:57:06.528Z,84.56
2022-12-01T13:01:09.538Z,83.02
2022-12-01T13:03:10.700Z,84.03
2022-12-01T13:05:12.444Z,83
2022-12-01T13:07:14.378Z,83.46
2022-12-01T13:09:15.478Z,84.3
2022-12-01T13:11:17.047Z,84.57
2022-12-01T13:13:18.876Z,83.48
2022-12-01T13:15:20.789Z,83.9
2022-12-01T13:17:22.234Z,84.12
2022-12-01T13:19:23.268Z,84.56
2022-12-01T13:21:24.693Z,82.7
2022-12-01T13:23:26.383Z,83.36
2022-12-01T13:25:27.763Z,82.46
2022-12-01T13:27:29.035Z,84.2
2022-12-01T13:29:30.800Z,84.02
2022-12-01T13:33:33.410Z,84.13
2022-12-01T13:35:34.562Z,83.93
2022-12-01T13:37:36.327Z,83.73
2022-12-01T13:39:37.748Z,83.64
2022-12-01T13:43:41.163Z,83.54
2022-12-01T13:45:42.474Z,83.44
2022-12-01T13:47:44.004Z,83.58
2022-12-01T13:49:45.122Z,85.03
2022-12-01T13:51:46.675Z,83.02
2022-12-01T13:53:48.263Z,83.59
2022-12-01T13:55:49.321Z,82.85
2022-12-01T13:59:52.594Z,83.79
2022-12-01T14:01:54.076Z,84.38
2022-12-01T14:03:56.818Z,84.58
2022-12-01T14:05:56.411Z,84.22
2022-12-01T14:07:57.886Z,83.43
2022-12-01T14:09:58.736Z,84.02
2022-12-01T14:11:59.728Z,82.53
2022-12-01T14:14:00.685Z,82.95
2022-12-01T14:16:02.256Z,83.52
2022-12-01T14:18:04.029Z,83.54
2022-12-01T14:20:05.015Z,84.15
2022-12-01T14:22:06.354Z,83.08
2022-12-01T14:24:08.004Z,83.23
2022-12-01T14:26:09.343Z,83.35
2022-12-01T14:28:10.826Z,84.01
2022-12-01T14:30:12.285Z,84.43
2022-12-01T14:32:13.552Z,83.74
2022-12-01T14:34:18.735Z,84.39
2022-12-01T14:36:15.946Z,84.33
2022-12-01T14:38:17.152Z,84.03
2022-12-01T14:42:20.551Z,84.4
2022-12-01T14:44:22.332Z,85
2022-12-01T14:46:23.306Z,85.37
2022-12-01T14:48:25.187Z,85.95
2022-12-01T14:50:26.418Z,85.63
2022-12-01T14:52:27.922Z,85.86
2022-12-01T14:54:29.145Z,85.93
2022-12-01T14:56:30.437Z,85.86
2022-12-01T14:58:31.866Z,85.96
2022-12-01T15:00:33.073Z,85.42
2022-12-01T15:02:34.996Z,85.42
2022-12-01T15:04:36.606Z,85.66
2022-12-01T15:06:38.523Z,85.49
2022-12-01T15:08:43.903Z,86.51
2022-12-01T15:10:41.289Z,86.06
2022-12-01T15:14:43.887Z,86.54
2022-12-01T15:16:45.265Z,86.64
2022-12-01T15:18:46.600Z,86.79
2022-12-01T15:20:48.466Z,86.25
2022-12-01T15:24:51.358Z,86.8
2022-12-01T15:26:53.078Z,86.68
2022-12-01T15:28:54.262Z,86.44
2022-12-01T15:30:55.801Z,86.83
2022-12-01T15:32:57.510Z,86.54
2022-12-01T15:34:59.048Z,86.94
2022-12-01T15:37:00.636Z,86.92
2022-12-01T15:39:45.597Z,86.79
2022-12-01T15:41:46.620Z,87.2
2022-12-01T15:43:47.731Z,86.77
2022-12-01T15:45:49.095Z,87.05
2022-12-01T15:47:50.321Z,87.15
2022-12-01T15:49:51.859Z,87.71
2022-12-01T15:51:53.594Z,87.93
2022-12-01T15:53:55.143Z,88.86
2022-12-01T15:55:58.941Z,88.72
2022-12-01T15:57:57.568Z,88.84
2022-12-01T15:59:59.323Z,88.79
2022-12-01T16:02:01.071Z,88.86
2022-12-01T16:04:02.335Z,89.06
2022-12-01T16:08:12.891Z,89.3
2022-12-01T16:10:14.695Z,89.26
2022-12-01T16:12:08.222Z,89.74
2022-12-01T16:14:09.432Z,89.65
2022-12-01T16:18:12.084Z,90.33
2022-12-01T16:20:13.818Z,90.35
2022-12-01T16:22:15.743Z,90.52
2022-12-01T16:24:16.819Z,90.78
2022-12-01T16:26:18.081Z,91.22
2022-12-01T16:28:19.410Z,91.25
2022-12-01T16:30:20.575Z,91.52
2022-12-01T16:32:22.239Z,91.02
2022-12-01T16:34:44.414Z,89.95
2022-12-01T16:36:26.861Z,89.6
2022-12-01T16:38:25.942Z,89.1
2022-12-01T16:40:27.539Z,88.93
2022-12-01T16:42:28.530Z,89.06
2022-12-01T16:44:30.348Z,89.1
2022-12-01T16:46:31.681Z,89.66
2022-12-01T16:48:33.251Z,89.66
2022-12-01T16:50:34.752Z,89.53
2022-12-01T16:52:43.970Z,89.49
2022-12-01T16:54:38.062Z,89.48
2022-12-01T16:56:39.065Z,89.61
2022-12-01T17:00:42.597Z,89.48
2022-12-01T17:02:44.037Z,89.18
2022-12-01T17:04:45.125Z,88.94
2022-12-01T17:06:46.408Z,88.81
2022-12-01T17:08:48.061Z,89.01
2022-12-01T17:10:49.452Z,89.1
2022-12-01T17:12:51.030Z,89.29
2022-12-01T17:14:52.466Z,89.57
2022-12-01T17:16:53.919Z,89.82
2022-12-01T17:18:55.637Z,89.46
2022-12-01T17:20:57.468Z,89.12
2022-12-01T17:22:59.098Z,88.92
2022-12-01T17:25:00.508Z,89.23
2022-12-01T17:27:02.179Z,89.5
2022-12-01T17:29:03.923Z,89.08
2022-12-01T17:33:06.472Z,88.67
2022-12-01T17:35:07.740Z,88.53
2022-12-01T17:37:09.684Z,88.78
2022-12-01T17:39:10.958Z,88.72
2022-12-01T17:43:13.822Z,88.98
2022-12-01T17:45:15.053Z,89.29
2022-12-01T17:47:16.577Z,89.24
2022-12-01T17:49:17.714Z,89.49
2022-12-01T17:51:19.131Z,89.69
2022-12-01T17:53:20.675Z,89.74
2022-12-01T17:55:21.940Z,90.09
2022-12-01T17:57:23.080Z,90.48
2022-12-01T17:59:24.609Z,90.72
2022-12-01T18:01:30.099Z,90.39
2022-12-01T18:03:27.305Z,90.09
2022-12-01T18:05:28.722Z,89.99
2022-12-01T18:07:30.348Z,89.83
2022-12-01T18:09:32.138Z,89.86
2022-12-01T18:11:33.181Z,89.66
2022-12-01T18:13:35.062Z,89.71
2022-12-01T18:15:36.504Z,89.96
2022-12-01T18:17:37.548Z,90.39
2022-12-01T18:19:39.242Z,90.08
2022-12-01T18:21:40.545Z,89.88
2022-12-01T18:25:43.255Z,90.24
2022-12-01T18:27:44.806Z,90.13
2022-12-01T18:31:48.285Z,89.84
2022-12-01T18:33:49.661Z,89.67
2022-12-01T18:35:50.847Z,89.48
2022-12-01T18:37:52.187Z,89.55
2022-12-01T18:39:54.005Z,89.44
2022-12-01T18:41:55.846Z,89.24
2022-12-01T18:43:56.952Z,89.54
2022-12-01T18:45:58.834Z,89.12
2022-12-01T18:48:00.028Z,89.65
2022-12-01T18:50:01.285Z,89.41
2022-12-01T18:52:02.794Z,89.09
2022-12-01T18:54:03.957Z,89.18
2022-12-01T18:56:04.946Z,89.26
2022-12-01T18:58:06.295Z,88.89
2022-12-01T19:00:08.259Z,88.81
2022-12-01T19:02:09.605Z,88.67
2022-12-01T19:04:10.796Z,88.4
2022-12-01T19:06:11.908Z,88.67
2022-12-01T19:08:13.074Z,88.32
2022-12-01T19:10:14.107Z,88.82
2022-12-01T19:12:15.275Z,88.93
2022-12-01T19:14:16.484Z,88.82
2022-12-01T19:16:18.332Z,89
2022-12-01T19:18:19.617Z,89.34
2022-12-01T19:20:20.623Z,89.13
2022-12-01T19:24:22.916Z,89
2022-12-01T19:26:23.943Z,89.53
2022-12-01T19:28:25.639Z,89.18
2022-12-01T19:30:26.912Z,89.38
2022-12-01T19:32:28.499Z,89.49
2022-12-01T19:34:30.008Z,89.66
2022-12-01T19:36:31.388Z,90.02
2022-12-01T19:38:32.845Z,90.31
2022-12-01T19:40:33.968Z,90.38
2022-12-01T19:42:35.553Z,90.36
2022-12-01T19:44:36.952Z,90.07
2022-12-01T19:46:38.305Z,90.55
2022-12-01T19:48:39.990Z,90.54
2022-12-01T19:50:41.989Z,89.96
2022-12-01T19:52:43.341Z,89.54
2022-12-01T19:56:46.554Z,90.37
2022-12-01T19:58:47.847Z,90.2
2022-12-01T20:00:49.434Z,89.79
2022-12-01T20:02:51.324Z,90.12
2022-12-01T20:06:54.631Z,90.39
2022-12-01T20:08:56.435Z,90.5
2022-12-01T20:10:58.314Z,90.19
2022-12-01T20:12:59.620Z,90.28
2022-12-01T20:15:00.598Z,89.99
2022-12-01T20:17:01.999Z,89.94
2022-12-01T20:19:03.940Z,90.35
2022-12-01T20:21:05.054Z,89.89
2022-12-01T20:23:06.952Z,89.56
2022-12-01T20:25:08.216Z,89.86
2022-12-01T20:27:10.209Z,89.89
2022-12-01T20:29:11.633Z,89.68
2022-12-01T20:31:13.077Z,89.89
2022-12-01T20:33:14.716Z,89.98
2022-12-01T20:35:16.155Z,89.37
2022-12-01T20:39:19.712Z,89.65
2022-12-01T20:41:21.129Z,89.55
2022-12-01T20:43:22.302Z,89.5
2022-12-01T20:45:24.070Z,89.16
2022-12-01T20:49:27.360Z,89.08
2022-12-01T20:51:28.617Z,89.41
2022-12-01T20:53:30.077Z,89.15
2022-12-01T20:55:31.630Z,89.2
2022-12-01T20:57:32.871Z,89.18
2022-12-01T20:59:34.220Z,89.59
2022-12-01T21:01:36.223Z,88.81
2022-12-01T21:03:38.100Z,89.44
2022-12-01T21:05:39.821Z,89.58
2022-12-01T21:07:40.926Z,89.11
2022-12-01T21:09:42.840Z,89.55
2022-12-01T21:11:43.889Z,89.24
2022-12-01T21:13:45.813Z,89.32
2022-12-01T21:15:46.883Z,90.02
2022-12-01T21:17:48.523Z,90.11
2022-12-01T21:19:50.274Z,90.21
2022-12-01T21:21:51.428Z,90.42
2022-12-01T21:23:52.531Z,90.09
2022-12-01T21:25:53.657Z,90.02
2022-12-01T21:27:55.515Z,90.22
2022-12-01T21:29:56.949Z,89.74
2022-12-01T21:31:58.207Z,89.7
2022-12-01T21:33:59.460Z,90.14
2022-12-01T21:38:03.414Z,89.75
2022-12-01T21:40:05.199Z,89.46
2022-12-01T21:42:06.337Z,89.72
2022-12-01T21:44:07.926Z,89.87
2022-12-01T21:48:10.644Z,90.17
2022-12-01T21:50:12.113Z,90.01
2022-12-01T21:52:14.097Z,90.03
2022-12-01T21:54:15.475Z,90.47
2022-12-01T21:56:17.051Z,90.11
2022-12-01T21:58:18.663Z,90.13
2022-12-01T22:00:19.748Z,90.55
2022-12-01T22:02:21.154Z,90.53
2022-12-01T22:04:22.944Z,90.71
2022-12-01T22:06:30.886Z,90.73
2022-12-01T22:08:26.436Z,90.43
2022-12-01T22:10:27.987Z,90.74
2022-12-01T22:12:29.085Z,90.65
2022-12-01T22:14:30.462Z,90.63
2022-12-01T22:16:32.266Z,90.62
2022-12-01T22:20:34.839Z,90.84
2022-12-01T22:22:36.464Z,90.67
2022-12-01T22:25:21.494Z,90.68
2022-12-01T22:27:23.339Z,90.48
2022-12-01T22:29:25.017Z,90.64
2022-12-01T22:31:26.870Z,90.34
2022-12-01T22:33:28.393Z,90.5
2022-12-01T22:35:30.123Z,90.77
2022-12-01T22:37:31.461Z,90.6
2022-12-01T22:39:33.040Z,90.61
2022-12-01T22:41:34.532Z,90.58
2022-12-01T22:43:35.750Z,90.84
2022-12-01T22:45:36.789Z,90.45
2022-12-01T22:47:38.030Z,90.77
2022-12-01T22:49:39.723Z,90.71
2022-12-01T22:51:41.494Z,90.67
2022-12-01T22:53:42.654Z,90.68
2022-12-01T22:55:43.912Z,90.87
2022-12-01T22:57:45.438Z,90.89
2022-12-01T22:59:46.697Z,90.89
2022-12-01T23:01:47.875Z,90.9
2022-12-01T23:03:49.701Z,91.07
2022-12-01T23:07:52.174Z,90.78
2022-12-01T23:09:53.523Z,90.93
2022-12-01T23:11:54.786Z,91.08
2022-12-01T23:13:56.241Z,90.7
2022-12-01T23:15:57.853Z,90.63
2022-12-01T23:17:59.576Z,90.78
2022-12-01T23:20:01.425Z,90.94
2022-12-01T23:22:03.209Z,90.99
2022-12-01T23:24:04.877Z,90.91
2022-12-01T23:26:05.893Z,90.75
2022-12-01T23:28:07.865Z,90.82
2022-12-01T23:30:09.747Z,90.84
2022-12-01T23:32:11.658Z,91.02
2022-12-01T23:34:13.548Z,90.79
2022-12-01T23:36:14.852Z,90.96
2022-12-01T23:40:17.940Z,91.5
2022-12-01T23:42:19.634Z,91.4
2022-12-01T23:44:21.316Z,91.44
2022-12-01T23:46:22.995Z,91.63
2022-12-01T23:48:24.268Z,91.59
2022-12-01T23:50:25.963Z,91.83
2022-12-01T23:52:27.471Z,91.69
2022-12-01T23:54:28.891Z,91.76
2022-12-01T23:56:30.763Z,91.64
2022-12-01T23:58:32.731Z,91.54
